createdAt,value
2022-10-13T00:01:33.308Z,22.00
2022-10-13T00:04:02.104Z,20.80
2022-10-13T00:06:31.743Z,22.63
2022-10-13T00:09:01.896Z,23.03
2022-10-13T00:11:32.053Z,22.97
2022-10-13T00:14:03.024Z,23.00
2022-10-13T00:16:33.478Z,23.70
2022-10-13T00:19:02.307Z,24.17
2022-10-13T00:21:31.404Z,26.67
2022-10-13T00:24:01.836Z,26.27
2022-10-13T00:26:30.591Z,26.03
2022-10-13T00:28:59.482Z,26.57
2022-10-13T00:31:30.734Z,26.10
2022-10-13T00:34:01.028Z,25.87
2022-10-13T00:36:30.606Z,26.33
2022-10-13T00:38:59.363Z,25.93
2022-10-13T00:41:29.649Z,26.97
2022-10-13T00:44:01.002Z,28.40
2022-10-13T00:46:32.084Z,27.67
2022-10-13T00:49:04.014Z,27.53
2022-10-13T00:51:40.820Z,28.33
2022-10-13T00:54:12.788Z,29.67
2022-10-13T00:56:43.431Z,29.43
2022-10-13T00:59:22.906Z,28.57
2022-10-13T01:01:52.554Z,27.50
2022-10-13T01:04:24.225Z,28.20
2022-10-13T01:06:53.920Z,28.47
2022-10-13T01:09:22.695Z,27.97
2022-10-13T01:12:04.251Z,28.83
2022-10-13T01:14:37.836Z,29.13
2022-10-13T01:17:17.016Z,28.67
2022-10-13T01:20:14.769Z,29.60
2022-10-13T01:22:56.677Z,29.83
2022-10-13T01:25:44.254Z,28.93
2022-10-13T01:28:39.613Z,29.10
2022-10-13T01:31:16.139Z,28.33
2022-10-13T01:33:50.273Z,29.97
2022-10-13T01:36:28.172Z,29.20
2022-10-13T01:39:02.156Z,29.90
2022-10-13T01:41:37.528Z,29.20
2022-10-13T01:44:13.150Z,30.00
2022-10-13T01:46:47.733Z,29.53
2022-10-13T01:49:20.554Z,29.30
2022-10-13T01:51:50.294Z,28.70
2022-10-13T01:54:19.118Z,29.17
2022-10-13T01:56:53.680Z,27.80
2022-10-13T01:59:23.732Z,27.57
2022-10-13T02:02:03.704Z,28.63
2022-10-13T02:04:43.697Z,28.43
2022-10-13T02:07:22.239Z,27.63
2022-10-13T02:09:59.614Z,28.13
2022-10-13T02:12:33.846Z,29.53
2022-10-13T02:15:03.814Z,27.87
2022-10-13T02:17:33.984Z,26.67
2022-10-13T02:20:06.718Z,28.97
2022-10-13T02:22:43.104Z,27.43
2022-10-13T02:25:12.158Z,26.77
2022-10-13T02:27:41.112Z,28.27
2022-10-13T02:30:11.119Z,27.20
2022-10-13T02:32:41.289Z,28.07
2022-10-13T02:35:10.481Z,27.47
2022-10-13T02:37:39.090Z,27.80
2022-10-13T02:40:08.960Z,28.03
2022-10-13T02:42:37.824Z,28.40
2022-10-13T02:45:07.564Z,26.87
2022-10-13T02:47:36.694Z,27.43
2022-10-13T02:50:08.877Z,27.17
2022-10-13T02:52:37.658Z,28.03
2022-10-13T02:55:07.767Z,27.13
2022-10-13T02:57:36.602Z,28.07
2022-10-13T03:00:07.313Z,28.50
2022-10-13T03:02:36.525Z,28.93
2022-10-13T03:05:07.656Z,28.83
2022-10-13T03:07:36.463Z,30.90
2022-10-13T03:10:06.708Z,29.80
2022-10-13T03:12:35.530Z,30.80
2022-10-13T03:15:04.799Z,30.57
2022-10-13T03:17:33.664Z,31.57
2022-10-13T03:20:02.554Z,30.67
2022-10-13T03:22:34.584Z,33.00
2022-10-13T03:25:03.781Z,31.40
2022-10-13T03:27:32.645Z,31.97
2022-10-13T03:30:01.323Z,32.13
2022-10-13T03:32:31.579Z,33.80
2022-10-13T03:35:00.574Z,31.90
2022-10-13T03:37:30.841Z,32.00
2022-10-13T03:40:01.312Z,31.40
2022-10-13T03:42:30.247Z,33.10
2022-10-13T03:44:58.988Z,31.83
2022-10-13T03:47:27.657Z,32.37
2022-10-13T03:49:56.490Z,34.70
2022-10-13T03:52:25.277Z,34.13
2022-10-13T03:54:54.242Z,34.53
2022-10-13T03:57:24.569Z,35.43
2022-10-13T03:59:55.962Z,34.40
2022-10-13T04:02:27.677Z,34.20
2022-10-13T04:04:56.771Z,35.40
2022-10-13T04:07:25.383Z,35.27
2022-10-13T04:09:54.210Z,35.33
2022-10-13T04:12:24.521Z,34.73
2022-10-13T04:14:53.311Z,35.13
2022-10-13T04:17:21.884Z,35.23
2022-10-13T04:19:50.772Z,35.77
2022-10-13T04:22:19.725Z,33.53
2022-10-13T04:24:49.792Z,34.57
2022-10-13T04:27:20.000Z,35.83
2022-10-13T04:29:50.044Z,35.90
2022-10-13T04:32:19.089Z,33.97
2022-10-13T04:34:47.742Z,34.67
2022-10-13T04:37:16.630Z,33.90
2022-10-13T04:39:45.382Z,35.87
2022-10-13T04:42:14.056Z,35.13
2022-10-13T04:44:42.609Z,35.60
2022-10-13T04:47:14.760Z,34.37
2022-10-13T04:49:43.302Z,35.57
2022-10-13T04:52:11.810Z,34.70
2022-10-13T04:54:40.383Z,34.17
2022-10-13T04:57:08.894Z,35.17
2022-10-13T04:59:37.608Z,34.97
2022-10-13T05:02:06.113Z,35.27
2022-10-13T05:04:36.116Z,34.33
2022-10-13T05:07:19.949Z,35.77
2022-10-13T05:09:48.536Z,36.27
2022-10-13T05:12:17.194Z,36.63
2022-10-13T05:14:45.922Z,35.83
2022-10-13T05:17:14.514Z,37.33
2022-10-13T05:19:44.422Z,36.80
2022-10-13T05:22:12.990Z,35.50
2022-10-13T05:24:43.144Z,35.87
2022-10-13T05:27:13.484Z,37.40
2022-10-13T05:29:42.156Z,37.50
2022-10-13T05:32:10.661Z,38.07
2022-10-13T05:34:39.278Z,35.60
2022-10-13T05:37:09.125Z,36.13
2022-10-13T05:39:37.950Z,36.53
2022-10-13T05:42:06.513Z,35.77
2022-10-13T05:44:36.333Z,37.53
2022-10-13T05:47:07.482Z,35.73
2022-10-13T05:49:39.800Z,35.03
2022-10-13T05:52:13.050Z,36.20
2022-10-13T05:54:44.036Z,36.20
2022-10-13T05:57:16.986Z,34.97
2022-10-13T05:59:49.854Z,34.43
2022-10-13T06:02:20.031Z,35.50
2022-10-13T06:04:52.768Z,33.83
2022-10-13T06:07:22.883Z,35.67
2022-10-13T06:09:51.654Z,33.57
2022-10-13T06:12:20.532Z,35.37
2022-10-13T06:14:49.355Z,33.83
2022-10-13T06:17:17.894Z,31.93
2022-10-13T06:19:46.619Z,32.43
2022-10-13T06:22:15.270Z,31.63
2022-10-13T06:24:45.564Z,29.93
2022-10-13T06:27:14.060Z,29.67
2022-10-13T06:29:42.623Z,28.13
2022-10-13T06:32:11.176Z,27.57
2022-10-13T06:34:39.712Z,26.43
2022-10-13T06:37:08.252Z,26.60
2022-10-13T06:39:37.009Z,26.87
2022-10-13T06:42:07.005Z,27.03
2022-10-13T06:44:39.590Z,25.40
2022-10-13T06:47:08.245Z,24.73
2022-10-13T06:49:36.746Z,23.63
2022-10-13T06:52:05.788Z,24.20
2022-10-13T06:54:34.468Z,23.87
2022-10-13T06:57:03.012Z,22.80
2022-10-13T06:59:32.898Z,22.47
2022-10-13T07:02:01.388Z,21.90
2022-10-13T07:04:30.038Z,22.10
2022-10-13T07:06:59.606Z,21.53
2022-10-13T07:09:28.336Z,22.27
2022-10-13T07:11:56.838Z,21.73
2022-10-13T07:14:25.494Z,22.00
2022-10-13T07:16:55.423Z,20.27
2022-10-13T07:19:23.968Z,20.63
2022-10-13T07:21:52.600Z,20.40
2022-10-13T07:24:21.590Z,20.27
2022-10-13T07:26:50.303Z,19.60
2022-10-13T07:29:19.120Z,19.73
2022-10-13T07:31:48.096Z,19.47
2022-10-13T07:34:18.032Z,17.40
2022-10-13T07:36:46.642Z,18.57
2022-10-13T07:39:15.151Z,17.40
2022-10-13T07:41:46.422Z,17.40
2022-10-13T07:44:18.816Z,18.27
2022-10-13T07:46:47.420Z,17.00
2022-10-13T07:49:17.376Z,17.27
2022-10-13T07:51:45.967Z,16.73
2022-10-13T07:54:14.509Z,18.83
2022-10-13T07:56:43.034Z,17.90
2022-10-13T07:59:11.700Z,18.80
2022-10-13T08:01:41.030Z,19.60
2022-10-13T08:04:09.822Z,17.23
2022-10-13T08:09:10.563Z,16.43
2022-10-13T08:11:39.736Z,16.20
2022-10-13T08:14:08.297Z,15.70
2022-10-13T08:16:38.203Z,15.57
2022-10-13T08:19:06.863Z,15.53
2022-10-13T08:24:25.401Z,15.37
2022-10-13T08:26:54.355Z,15.80
2022-10-13T08:29:24.129Z,15.50
2022-10-13T08:31:53.985Z,15.07
2022-10-13T08:34:23.463Z,15.57
2022-10-13T08:36:53.460Z,15.73
2022-10-13T08:39:23.515Z,16.13
2022-10-13T08:41:54.229Z,16.43
2022-10-13T08:45:02.628Z,15.20
2022-10-13T08:47:23.911Z,15.37
2022-10-13T08:49:56.477Z,15.90
2022-10-13T08:52:30.925Z,17.80
2022-10-13T08:54:59.470Z,15.93
2022-10-13T08:57:29.543Z,14.80
2022-10-13T08:59:58.103Z,14.47
2022-10-13T09:02:31.585Z,13.47
2022-10-13T09:05:03.987Z,13.13
2022-10-13T09:07:36.248Z,13.67
2022-10-13T09:10:07.337Z,13.80
2022-10-13T09:12:37.558Z,14.00
2022-10-13T09:15:10.074Z,12.63
2022-10-13T09:17:40.138Z,14.73
2022-10-13T09:20:20.985Z,16.90
2022-10-13T09:23:04.221Z,14.27
2022-10-13T09:25:41.295Z,14.93
2022-10-13T09:28:19.595Z,17.30
2022-10-13T09:30:49.112Z,11.50
2022-10-13T09:33:24.125Z,11.77
2022-10-13T09:36:12.132Z,11.67
2022-10-13T09:38:42.895Z,11.77
2022-10-13T09:41:17.127Z,12.13
2022-10-13T09:44:01.055Z,10.83
2022-10-13T09:46:32.601Z,11.73
2022-10-13T09:49:04.699Z,11.00
2022-10-13T09:51:37.896Z,10.60
2022-10-13T09:54:28.812Z,11.00
2022-10-13T09:57:02.297Z,10.30
2022-10-13T09:59:35.880Z,10.57
2022-10-13T10:02:21.357Z,9.57
2022-10-13T10:04:54.703Z,9.27
2022-10-13T10:07:26.852Z,9.03
2022-10-13T10:10:04.938Z,8.63
2022-10-13T10:12:37.342Z,9.33
2022-10-13T10:15:20.996Z,8.87
2022-10-13T10:17:55.816Z,8.17
2022-10-13T10:20:52.471Z,8.70
2022-10-13T10:23:29.365Z,8.38
2022-10-13T10:26:01.855Z,8.47
2022-10-13T10:28:58.104Z,8.43
2022-10-13T10:31:41.540Z,8.75
2022-10-13T10:34:27.411Z,8.07
2022-10-13T10:37:07.084Z,8.48
2022-10-13T10:39:42.298Z,7.88
2022-10-13T10:42:33.669Z,7.95
2022-10-13T10:45:05.586Z,7.10
2022-10-13T10:47:40.809Z,7.20
2022-10-13T10:50:15.035Z,7.45
2022-10-13T10:52:54.573Z,7.28
2022-10-13T10:55:29.390Z,7.20
2022-10-13T10:58:09.812Z,8.73
2022-10-13T11:00:43.950Z,8.17
2022-10-13T11:03:26.276Z,8.38
2022-10-13T11:06:03.048Z,8.25
2022-10-13T11:08:41.102Z,11.05
2022-10-13T11:11:37.218Z,8.27
2022-10-13T11:14:30.364Z,7.35
2022-10-13T11:17:28.298Z,8.48
2022-10-13T11:19:58.973Z,8.57
2022-10-13T11:22:28.763Z,8.15
2022-10-13T11:25:00.335Z,7.75
2022-10-13T11:27:40.314Z,8.23
2022-10-13T11:30:44.445Z,8.85
2022-10-13T11:33:49.913Z,7.68
2022-10-13T11:36:46.260Z,7.97
2022-10-13T11:39:47.691Z,8.25
2022-10-13T11:42:43.721Z,8.77
2022-10-13T11:45:23.250Z,8.07
2022-10-13T11:48:13.327Z,7.57
2022-10-13T11:50:49.394Z,7.90
2022-10-13T11:53:22.616Z,7.30
2022-10-13T11:55:53.622Z,7.82
2022-10-13T11:58:24.351Z,7.32
2022-10-13T12:00:59.033Z,7.93
2022-10-13T12:03:29.789Z,8.95
2022-10-13T12:06:01.492Z,9.02
2022-10-13T12:08:33.838Z,12.25
2022-10-13T12:11:07.568Z,7.40
2022-10-13T12:13:37.551Z,7.72
2022-10-13T12:16:08.275Z,8.05
2022-10-13T12:18:39.209Z,7.68
2022-10-13T12:21:13.287Z,8.25
2022-10-13T12:23:43.488Z,8.65
2022-10-13T12:26:16.859Z,8.57
2022-10-13T12:28:50.924Z,8.95
2022-10-13T12:31:22.114Z,8.65
2022-10-13T12:33:55.560Z,8.07
2022-10-13T12:36:30.465Z,8.63
2022-10-13T12:39:03.687Z,8.07
2022-10-13T12:41:35.303Z,7.43
2022-10-13T12:44:06.672Z,9.50
2022-10-13T12:46:40.357Z,23.40
2022-10-13T12:49:13.993Z,14.35
2022-10-13T12:51:44.615Z,9.65
2022-10-13T12:54:23.795Z,7.88
2022-10-13T12:56:56.316Z,13.63
2022-10-13T12:59:27.454Z,8.32
2022-10-13T13:02:00.914Z,8.20
2022-10-13T13:04:42.231Z,7.72
2022-10-13T13:07:29.536Z,8.38
2022-10-13T13:10:14.348Z,8.20
2022-10-13T13:12:43.483Z,8.73
2022-10-13T13:15:33.938Z,8.75
2022-10-13T13:18:36.634Z,8.73
2022-10-13T13:21:07.502Z,8.10
2022-10-13T13:23:36.603Z,7.88
2022-10-13T13:26:13.186Z,7.63
2022-10-13T13:28:46.342Z,8.80
2022-10-13T13:31:16.465Z,8.55
2022-10-13T13:33:45.179Z,9.57
2022-10-13T13:36:17.313Z,8.23
2022-10-13T13:38:48.516Z,8.68
2022-10-13T13:41:18.668Z,9.68
2022-10-13T13:43:47.613Z,12.30
2022-10-13T13:46:18.637Z,13.52
2022-10-13T13:48:47.294Z,12.10
2022-10-13T13:51:16.835Z,12.77
2022-10-13T13:53:46.913Z,12.25
2022-10-13T13:56:19.998Z,17.13
2022-10-13T13:58:49.222Z,10.98
2022-10-13T14:01:17.750Z,9.98
2022-10-13T14:03:46.384Z,9.50
2022-10-13T14:06:21.794Z,9.45
2022-10-13T14:08:51.158Z,9.88
2022-10-13T14:11:21.143Z,9.27
2022-10-13T14:13:49.839Z,9.55
2022-10-13T14:16:25.836Z,8.83
2022-10-13T14:18:55.624Z,10.68
2022-10-13T14:21:26.303Z,9.53
2022-10-13T14:23:58.648Z,9.13
2022-10-13T14:26:28.517Z,9.57
2022-10-13T14:28:58.653Z,9.90
2022-10-13T14:31:27.238Z,9.75
2022-10-13T14:33:55.994Z,9.70
2022-10-13T14:36:26.145Z,10.00
2022-10-13T14:38:55.064Z,9.35
2022-10-13T14:41:24.011Z,11.55
2022-10-13T14:43:58.013Z,11.30
2022-10-13T14:46:26.634Z,10.70
2022-10-13T14:48:57.175Z,13.50
2022-10-13T14:51:26.241Z,12.48
2022-10-13T14:53:54.795Z,9.40
2022-10-13T14:56:25.138Z,10.60
2022-10-13T14:58:57.718Z,11.10
2022-10-13T15:01:31.336Z,11.32
2022-10-13T15:04:00.152Z,10.52
2022-10-13T15:06:28.709Z,10.70
2022-10-13T15:08:57.948Z,11.60
2022-10-13T15:11:28.011Z,10.52
2022-10-13T15:13:58.197Z,11.43
2022-10-13T15:16:28.711Z,10.48
2022-10-13T15:18:57.714Z,11.27
2022-10-13T15:21:26.942Z,11.90
2022-10-13T15:23:56.495Z,15.77
2022-10-13T15:26:25.086Z,15.73
2022-10-13T15:28:54.718Z,13.45
2022-10-13T15:31:24.859Z,11.80
2022-10-13T15:33:54.937Z,10.57
2022-10-13T15:36:52.117Z,11.73
2022-10-13T15:39:20.811Z,11.33
2022-10-13T15:41:49.571Z,12.30
2022-10-13T15:44:21.113Z,11.93
2022-10-13T15:47:07.013Z,12.63
2022-10-13T15:49:38.654Z,27.27
2022-10-13T15:52:07.532Z,14.00
2022-10-13T15:54:36.046Z,12.63
2022-10-13T15:57:04.887Z,13.47
2022-10-13T15:59:33.709Z,13.67
2022-10-13T16:02:03.913Z,13.27
2022-10-13T16:04:37.351Z,13.77
2022-10-13T16:07:06.293Z,13.90
2022-10-13T16:09:35.121Z,15.10
2022-10-13T16:12:03.941Z,13.83
2022-10-13T16:14:33.055Z,12.77
2022-10-13T16:17:03.441Z,13.33
2022-10-13T16:19:32.188Z,15.30
2022-10-13T16:22:00.952Z,13.30
2022-10-13T16:24:30.578Z,14.40
2022-10-13T16:26:59.324Z,13.33
2022-10-13T16:29:29.552Z,12.03
2022-10-13T16:31:58.193Z,11.40
2022-10-13T16:34:28.772Z,11.53
2022-10-13T16:36:57.561Z,13.70
2022-10-13T16:39:26.781Z,13.63
2022-10-13T16:41:55.630Z,15.03
2022-10-13T16:44:26.678Z,15.10
2022-10-13T16:46:56.927Z,15.37
2022-10-13T16:49:27.525Z,15.90
2022-10-13T16:51:56.313Z,15.63
2022-10-13T16:54:25.130Z,14.93
2022-10-13T16:56:53.739Z,19.70
2022-10-13T16:59:22.408Z,20.53
2022-10-13T17:01:51.024Z,19.87
2022-10-13T17:04:22.248Z,18.07
2022-10-13T17:06:52.743Z,18.80
2022-10-13T17:09:21.390Z,18.27
2022-10-13T17:11:50.097Z,18.60
2022-10-13T17:14:18.749Z,18.90
2022-10-13T17:16:47.421Z,20.20
2022-10-13T17:19:16.248Z,20.00
2022-10-13T17:21:45.669Z,18.07
2022-10-13T17:24:18.422Z,18.80
2022-10-13T17:26:47.079Z,17.90
2022-10-13T17:29:15.874Z,18.97
2022-10-13T21:03:08.915Z,27.07
2022-10-13T21:05:37.671Z,28.80
2022-10-13T21:08:06.597Z,27.77
2022-10-13T21:10:37.642Z,28.77
2022-10-13T21:13:06.346Z,29.70
2022-10-13T21:15:38.168Z,27.67
2022-10-13T21:18:09.292Z,29.83
2022-10-13T21:20:42.115Z,29.47
2022-10-13T21:23:12.732Z,29.47
2022-10-13T21:25:41.582Z,29.63
2022-10-13T21:28:10.297Z,30.00
2022-10-13T21:30:39.212Z,30.33
2022-10-13T21:33:09.242Z,29.93
2022-10-13T21:35:38.177Z,30.03
2022-10-13T21:38:06.997Z,29.37
2022-10-13T21:40:35.882Z,30.70
2022-10-13T21:43:04.495Z,30.97
2022-10-13T21:45:33.762Z,28.83
2022-10-13T21:48:02.316Z,30.63
2022-10-13T21:50:32.575Z,29.67
2022-10-13T21:53:01.437Z,31.07
2022-10-13T21:55:32.984Z,30.37
2022-10-13T21:58:05.400Z,30.13
2022-10-13T22:00:34.506Z,30.30
2022-10-13T22:03:03.099Z,31.90
2022-10-13T22:05:33.188Z,32.20
2022-10-13T22:08:01.905Z,30.90
2022-10-13T22:10:30.683Z,30.93
2022-10-13T22:12:59.464Z,31.20
2022-10-13T22:15:28.081Z,32.90
2022-10-13T22:17:57.053Z,32.20
2022-10-13T22:20:26.087Z,32.60
2022-10-13T22:22:56.393Z,32.50
2022-10-13T22:25:25.240Z,33.67
2022-10-13T22:27:53.989Z,33.70
2022-10-13T22:30:22.974Z,34.87
2022-10-13T22:32:51.806Z,34.77
2022-10-13T22:35:20.596Z,31.90
2022-10-13T22:37:49.464Z,34.63
2022-10-13T22:40:19.611Z,34.33
2022-10-13T22:42:49.435Z,35.00
2022-10-13T22:45:18.621Z,35.03
2022-10-13T22:47:50.227Z,35.83
2022-10-13T22:50:19.529Z,35.30
2022-10-13T22:52:48.217Z,35.90
2022-10-13T22:55:17.015Z,35.60
2022-10-13T22:57:47.202Z,33.43
2022-10-13T23:00:17.001Z,34.93
2022-10-13T23:02:48.080Z,33.23
2022-10-13T23:05:16.751Z,34.53
2022-10-13T23:07:45.884Z,32.50
2022-10-13T23:10:14.754Z,33.33
2022-10-13T23:12:44.073Z,34.17
2022-10-13T23:15:14.429Z,34.50
2022-10-13T23:17:43.133Z,32.70
2022-10-13T23:20:12.453Z,33.23
2022-10-13T23:22:41.233Z,33.73
2022-10-13T23:25:10.055Z,34.30
2022-10-13T23:27:39.810Z,33.67
2022-10-13T23:30:09.603Z,33.57
2022-10-13T23:32:39.897Z,35.13
2022-10-13T23:35:09.203Z,34.83
2022-10-13T23:37:37.829Z,35.67
2022-10-13T23:40:07.547Z,35.07
2022-10-13T23:42:36.408Z,36.73
2022-10-13T23:45:05.740Z,36.37
2022-10-13T23:47:34.724Z,35.97
2022-10-13T23:50:05.073Z,37.40
2022-10-13T23:52:33.720Z,33.87
2022-10-13T23:55:02.424Z,34.63
2022-10-13T23:57:31.676Z,35.10
